Latest Weather Observations for Charleville

IDQ60801

Issued at 6:42 pm EST Wednesday 24 April 2019 (issued every 10 minutes, with the page automatically refreshed every 10 minutes)

About weather observations | Map of weather stations | Latest weather observations for QLD | Other Formats
Station Details ID: 044021 Name: CHARLEVILLE AERO Lat: -26.41 Lon: 146.26 Height: 301.6 m
Data from the previous 72 hours. | See also: Recent months at Charleville
Date/Time
EST
Temp
°C
App
Temp
°C
Dew
Point
°C
Rel
Hum
%
Delta-T
°C
Wind Press
QNH
hPa
Press
MSL
hPa
Rain since
9am
mm
Dir  Spd
km/h
Gust
km/h
Spd
kts
Gust
kts
24/06:30pm 19.9 19.6 15.5 76 2.6 E 11 13 6 7 1019.2 1018.0 1.2
24/06:00pm 20.2 20.1 16.0 77 2.5 ESE 11 19 6 10 1019.0 1017.8 1.2
24/05:30pm 20.7 20.6 15.9 74 2.9 E 11 15 6 8 1018.8 1017.6 1.2
24/05:00pm 21.2 20.5 15.5 70 3.4 ENE 13 19 7 10 1018.9 1017.7 1.2
24/04:30pm 22.1 21.8 15.5 66 4.0 ENE 11 19 6 10 1018.7 1017.5 1.2
24/04:00pm 21.5 20.9 15.6 69 3.6 E 13 19 7 10 1018.8 1017.6 1.2
24/03:30pm 22.1 22.2 16.4 70 3.5 ESE 11 17 6 9 1018.6 1017.4 1.2
24/03:00pm 21.7 21.0 15.5 68 3.7 E 13 19 7 10 1018.6 1017.4 1.2
24/02:30pm 20.9 20.5 16.1 74 2.9 SE 13 19 7 10 1019.0 1017.8 1.0
24/02:00pm 21.3 19.8 16.3 73 3.1 E 19 28 10 15 1019.4 1018.2 1.0
24/01:30pm 20.8 19.6 16.2 75 2.8 E 17 24 9 13 1019.6 1018.5 1.0
24/01:00pm 20.0 20.3 17.0 83 1.8 E 11 17 6 9 1019.8 1018.7 1.0
24/12:51pm 20.0 20.1 17.4 85 1.6 E 13 19 7 10 1019.9 1018.8 1.0
24/12:30pm 19.5 20.8 17.6 89 1.2 SE 7 13 4 7 1020.1 1019.0 1.0
24/12:00pm 19.5 22.2 17.8 90 1.1 CALM 0 0 0 0 1020.7 1019.6 0.6
24/11:47am 19.3 21.9 17.6 90 1.1 CALM 0 6 0 3 1020.8 1019.7 0.6
24/11:45am 19.3 21.6 17.6 90 1.1 SW 2 9 1 5 1020.7 1019.6 0.6
24/11:30am 19.1 19.6 17.4 90 1.0 W 11 17 6 9 1020.6 1019.5 0.6
24/11:00am 18.9 20.0 17.2 90 1.0 WSW 7 11 4 6 1020.8 1019.7 0.2
24/10:30am 19.0 19.5 17.5 91 0.9 W 11 15 6 8 1020.9 1019.8 0.2
24/10:26am 18.9 19.4 17.4 91 0.9 WSW 11 15 6 8 1020.6 1019.5 0.2
24/10:22am 19.0 19.5 17.5 91 0.9 SW 11 15 6 8 1020.7 1019.6 0.2
24/10:00am 18.7 19.8 17.0 90 1.0 S 7 9 4 5 1020.8 1019.7 0.0
24/09:34am 18.8 18.7 16.9 89 1.2 WNW 13 20 7 11 1020.6 1019.5 0.0
24/09:30am 18.8 18.4 17.1 90 1.0 WNW 15 20 8 11 1021.0 1019.9 0.0
24/09:00am 18.9 20.9 16.9 88 1.2 E 2 7 1 4 1020.1 1019.0 33.4
24/08:50am 18.7 19.7 16.9 89 1.1 E 7 9 4 5 1020.0 1018.9 33.4
24/08:30am 18.2 19.3 16.5 90 1.0 NNE 6 9 3 5 1020.3 1019.2 33.4
24/08:13am 18.0 20.2 16.5 91 0.9 CALM 0 0 0 0 1020.5 1019.4 33.4
24/08:00am 17.9 18.9 16.4 91 0.9 ENE 6 11 3 6 1020.3 1019.2 33.4
24/07:35am 17.2 18.4 15.9 92 0.8 E 4 9 2 5 1019.8 1018.7 33.4
24/07:30am 17.1 17.9 15.8 92 0.8 E 6 9 3 5 1019.8 1018.7 33.4
24/07:00am 16.8 17.5 15.5 92 0.8 SE 6 9 3 5 1020.0 1018.9 33.4
24/06:30am 16.7 17.1 15.4 92 0.8 SSE 7 11 4 6 1019.9 1018.8 33.2
24/06:00am 16.6 16.6 15.3 92 0.8 SSW 9 11 5 6 1019.8 1018.7 32.4
24/05:57am 16.6 16.6 15.3 92 0.8 SSW 9 11 5 6 1019.8 1018.7 32.4
24/05:33am 16.6 17.0 15.3 92 0.8 SSW 7 11 4 6 1020.1 1019.0 31.8
24/05:30am 16.7 17.3 15.4 92 0.8 SSW 6 9 3 5 1020.1 1019.0 31.8
24/05:00am 16.7 17.1 15.4 92 0.8 SW 7 9 4 5 1020.1 1019.0 30.2
24/04:41am 16.7 18.4 15.2 91 0.9 CALM 0 0 0 0 1020.0 1018.9 28.4
24/04:30am 16.7 18.4 15.2 91 0.9 CALM 0 0 0 0 1020.0 1018.9 27.8
24/04:00am 16.8 17.7 15.2 90 0.9 SSW 4 7 2 4 1019.4 1018.2 26.8
24/03:30am 16.8 17.1 15.0 89 1.1 SSW 7 11 4 6 1019.4 1018.2 26.8
24/03:00am 16.7 16.6 14.9 89 1.1 SW 9 11 5 6 1019.0 1017.8 26.8
24/02:30am 16.9 16.7 14.7 87 1.3 SSW 9 9 5 5 1018.9 1017.7 26.8
24/02:00am 17.1 16.1 14.7 86 1.4 SE 13 17 7 9 1019.0 1017.8 26.8
24/01:30am 17.1 15.0 14.7 86 1.4 ESE 19 28 10 15 1019.0 1017.8 26.8
24/01:00am 17.1 13.3 14.7 86 1.4 ESE 28 39 15 21 1019.2 1018.0 26.8
24/12:30am 16.7 14.5 14.9 89 1.1 SE 20 30 11 16 1019.5 1018.4 26.6
24/12:00am 16.5 13.9 14.9 90 0.9 ESE 22 30 12 16 1019.9 1018.8 26.6
 
Date/Time
EST
Temp
°C
App
Temp
°C
Dew
Point
°C
Rel
Hum
%
Delta-T
°C
Wind Press
QNH
hPa
Press
MSL
hPa
Rain since
9am
mm
Dir  Spd
km/h
Gust
km/h
Spd
kts
Gust
kts
23/11:30pm 15.9 13.5 14.4 91 0.9 SE 20 32 11 17 1020.5 1019.4 26.6
23/11:00pm 15.7 12.5 14.2 91 0.9 ESE 24 33 13 18 1021.0 1019.9 26.6
23/10:30pm 15.7 12.1 14.2 91 0.9 SE 26 35 14 19 1021.3 1020.2 26.2
23/10:21pm 15.7 11.7 14.2 91 0.9 SE 28 39 15 21 1021.3 1020.2 26.2
23/10:20pm 15.7 11.7 14.2 91 0.9 SE 28 39 15 21 1021.3 1020.2 26.2
23/10:04pm 16.0 13.7 14.7 92 0.8 SE 20 26 11 14 1022.0 1020.8 26.0
23/10:00pm 15.9 14.2 14.6 92 0.8 SE 17 26 9 14 1022.0 1020.8 25.2
23/09:30pm 16.2 14.5 14.7 91 0.9 SSE 17 24 9 13 1022.1 1020.9 19.4
23/09:25pm 16.3 15.8 14.8 91 0.9 S 11 19 6 10 1022.2 1021.0 18.6
23/09:00pm 16.6 15.9 15.3 92 0.8 SE 13 20 7 11 1021.8 1020.6 17.2
23/08:31pm 16.5 15.0 15.2 92 0.8 S 17 22 9 12 1021.8 1020.6 16.8
23/08:30pm 16.5 15.0 15.2 92 0.8 S 17 22 9 12 1021.8 1020.6 16.8
23/08:00pm 16.6 14.7 15.1 91 0.9 S 19 26 10 14 1021.8 1020.6 14.2
23/07:39pm 16.6 14.1 15.1 91 0.9 S 22 33 12 18 1021.2 1020.1 11.8
23/07:30pm 16.6 14.7 15.1 91 0.9 S 19 30 10 16 1021.1 1020.0 11.0
23/07:00pm 16.4 14.4 14.9 91 0.9 SSW 19 28 10 15 1021.2 1020.1 9.4
23/06:30pm 16.5 13.9 14.9 90 0.9 SSW 22 35 12 19 1020.8 1019.7 8.4
23/06:00pm 16.7 15.1 15.1 90 0.9 S 17 26 9 14 1021.2 1020.1 7.0
23/05:30pm 16.9 15.7 15.1 89 1.1 SSW 15 26 8 14 1020.9 1019.8 6.8
23/05:23pm 16.9 15.4 15.2 90 1.0 S 17 26 9 14 1020.7 1019.6 6.8
23/05:00pm 17.0 15.9 15.3 90 1.0 SSW 15 19 8 10 1020.7 1019.6 5.6
23/04:42pm 17.3 16.3 15.5 89 1.1 SSW 15 26 8 14 1020.6 1019.5 3.4
23/04:41pm 17.3 16.3 15.5 89 1.1 SSW 15 26 8 14 1020.6 1019.5 3.4
23/04:30pm 17.4 16.0 15.6 89 1.1 SSW 17 28 9 15 1020.3 1019.2 2.6
23/04:27pm 17.4 16.0 15.6 89 1.1 SSW 17 28 9 15 1020.3 1019.2 2.4
23/04:00pm 18.1 15.9 15.0 82 1.8 SSW 20 35 11 19 1019.9 1018.8 1.0
23/03:30pm 22.8 23.4 15.4 63 4.5 ESE 6 9 3 5 1019.0 1017.8 0.8
23/03:00pm 23.3 22.2 15.4 61 4.8 ENE 15 19 8 10 1018.9 1017.7 0.8
23/02:30pm 23.6 21.9 14.6 57 5.4 ENE 17 26 9 14 1018.8 1017.6 0.8
23/02:00pm 24.1 23.2 15.9 60 5.0 ENE 15 19 8 10 1018.8 1017.6 0.8
23/01:30pm 24.1 22.5 15.1 57 5.5 NE 17 22 9 12 1019.2 1018.0 0.8
23/01:00pm 23.9 23.8 16.9 65 4.4 E 13 24 7 13 1019.4 1018.2 0.8
23/12:30pm 23.2 24.0 17.2 69 3.7 ENE 9 15 5 8 1020.0 1018.9 0.8
23/12:00pm 22.3 24.2 17.7 75 2.9 ESE 4 9 2 5 1020.2 1019.1 0.8
23/11:30am 21.0 22.9 17.6 81 2.1 ENE 4 7 2 4 1020.7 1019.6 0.8
23/11:00am 21.0 20.9 17.0 78 2.5 NE 13 17 7 9 1021.1 1020.0 0.2
23/10:30am 21.0 20.6 17.2 79 2.4 NE 15 19 8 10 1021.2 1020.1 0.2
23/10:00am 20.9 20.8 16.9 78 2.5 NE 13 19 7 10 1021.2 1020.1 0.0
23/09:30am 20.8 20.6 16.8 78 2.5 NE 13 17 7 9 1021.5 1020.3 0.0
23/09:00am 20.6 21.0 17.2 81 2.1 ENE 11 13 6 7 1021.2 1020.1 2.6
23/08:30am 20.3 21.4 17.1 82 2.0 ENE 7 11 4 6 1021.1 1020.0 2.6
23/08:00am 20.4 20.6 16.8 80 2.2 ENE 11 15 6 8 1020.7 1019.6 2.4
23/07:30am 19.6 22.1 17.2 86 1.5 CALM 0 6 0 3 1020.8 1019.7 2.4
23/07:00am 19.6 21.5 16.8 84 1.7 NNE 2 7 1 4 1020.2 1019.1 2.4
23/06:30am 19.8 20.0 16.8 83 1.8 ESE 11 13 6 7 1019.7 1018.6 2.4
23/06:00am 19.6 20.0 17.2 86 1.5 E 11 13 6 7 1019.3 1018.1 2.4
23/05:30am 19.0 20.1 17.1 89 1.2 SE 7 9 4 5 1019.1 1017.9 2.4
23/05:00am 19.0 19.8 17.3 90 1.0 SE 9 9 5 5 1018.8 1017.6 2.4
23/04:30am 19.1 19.5 17.2 89 1.2 SE 11 13 6 7 1018.7 1017.5 2.4
23/04:00am 19.1 20.2 17.2 89 1.2 SE 7 9 4 5 1018.5 1017.3 2.4
23/03:30am 19.0 20.2 17.3 90 1.0 SSE 7 9 4 5 1018.5 1017.3 2.4
23/03:00am 18.8 20.9 17.1 90 1.0 S 2 6 1 3 1018.5 1017.3 2.4
23/02:30am 18.9 19.9 16.9 88 1.2 SE 7 9 4 5 1018.6 1017.4 2.4
23/02:00am 19.1 20.4 17.1 88 1.2 SSE 6 7 3 4 1018.9 1017.7 2.4
23/01:30am 19.2 19.6 17.2 88 1.2 ESE 11 13 6 7 1019.0 1017.8 2.4
23/01:00am 19.1 19.1 17.2 89 1.2 ESE 13 17 7 9 1019.1 1017.9 2.4
23/12:30am 18.8 19.1 17.1 90 1.0 ESE 11 15 6 8 1019.3 1018.1 2.4
23/12:00am 18.6 19.2 16.8 89 1.1 SSE 9 11 5 6 1019.7 1018.6 2.4
 
Date/Time
EST
Temp
°C
App
Temp
°C
Dew
Point
°C
Rel
Hum
%
Delta-T
°C
Wind Press
QNH
hPa
Press
MSL
hPa
Rain since
9am
mm
Dir  Spd
km/h
Gust
km/h
Spd
kts
Gust
kts
22/11:30pm 18.9 21.3 16.9 88 1.2 CALM 0 0 0 0 1020.1 1019.0 2.4
22/11:00pm 18.8 19.8 16.9 89 1.2 ESE 7 11 4 6 1020.2 1019.1 2.4
22/10:30pm 18.5 18.7 16.7 89 1.1 SE 11 17 6 9 1020.3 1019.2 2.4
22/10:04pm 18.5 18.7 16.8 90 1.0 SE 11 13 6 7 1020.2 1019.1 2.4
22/10:00pm 18.5 18.7 16.8 90 1.0 SE 11 15 6 8 1020.2 1019.1 2.4
22/09:30pm 18.2 17.2 16.7 91 0.9 SE 17 26 9 14 1020.4 1019.3 2.4
22/09:14pm 18.0 17.3 16.3 90 1.0 SE 15 19 8 10 1020.4 1019.3 2.4
22/09:00pm 17.9 17.1 16.2 90 1.0 SSE 15 22 8 12 1020.2 1019.1 2.4
22/08:30pm 18.0 17.3 16.3 90 1.0 S 15 24 8 13 1019.9 1018.8 2.4
22/08:00pm 18.0 16.9 16.3 90 1.0 S 17 26 9 14 1019.7 1018.6 2.4
22/07:41pm 18.1 17.0 16.3 89 1.1 S 17 26 9 14 1020.0 1018.9 2.4
22/07:30pm 18.1 16.5 16.1 88 1.2 SSW 19 32 10 17 1019.5 1018.4 2.4
22/07:22pm 18.4 17.2 16.0 86 1.4 SSW 17 28 9 15 1019.5 1018.4 2.0
22/07:00pm 19.2 16.2 15.9 81 2.0 SW 26 37 14 20 1019.3 1018.1 1.0
22/06:30pm 22.2 22.9 17.1 73 3.2 SW 9 13 5 7 1018.5 1017.3 1.0
22/06:00pm 24.6 25.6 16.8 62 4.9 N 7 9 4 5 1017.6 1016.5 0.8
22/05:30pm 25.1 24.8 15.4 55 5.9 N 11 13 6 7 1017.3 1016.2 0.8
22/05:00pm 25.6 24.8 15.0 52 6.4 NNE 13 17 7 9 1017.0 1015.9 0.8
22/04:30pm 25.9 25.5 15.3 52 6.5 N 11 13 6 7 1016.9 1015.8 0.8
22/04:00pm 25.4 27.0 16.0 56 5.8 W 2 7 1 4 1016.8 1015.7 0.8
22/03:30pm 24.6 25.7 16.6 61 5.0 ENE 6 11 3 6 1016.9 1015.8 0.8
22/03:00pm 22.5 22.0 17.0 71 3.4 NNW 15 24 8 13 1017.3 1016.2 0.8
22/02:30pm 25.5 24.4 14.3 50 6.7 NNW 13 19 7 10 1016.9 1015.8 0.0
22/02:00pm 26.3 25.0 13.8 46 7.5 N 13 20 7 11 1017.0 1015.9 0.0
22/01:30pm 26.1 25.5 13.6 46 7.5 N 9 19 5 10 1017.3 1016.2 0.0
22/01:00pm 26.1 25.0 14.2 48 7.2 NNW 13 19 7 10 1017.6 1016.5 0.0
22/12:30pm 25.4 24.2 13.9 49 6.9 N 13 19 7 10 1018.1 1016.9 0.0
22/12:00pm 25.2 23.1 13.7 49 6.8 N 17 22 9 12 1018.6 1017.4 0.0
22/11:30am 24.9 22.9 13.8 50 6.6 N 17 22 9 12 1018.9 1017.7 0.0
22/11:00am 25.1 23.2 14.3 51 6.5 NNE 17 26 9 14 1019.0 1017.8 0.0
22/10:30am 24.3 23.3 14.7 55 5.8 NNE 13 19 7 10 1019.2 1018.0 0.0
22/10:00am 23.7 21.9 14.4 56 5.6 NNE 17 24 9 13 1019.3 1018.1 0.0
22/09:30am 23.2 21.9 14.7 58 5.1 NNE 15 22 8 12 1019.1 1017.9 0.0
22/09:00am 22.9 21.7 15.0 61 4.7 NE 15 24 8 13 1019.1 1017.9 0.0
22/08:30am 22.7 20.8 15.3 63 4.5 NE 19 30 10 16 1019.0 1017.8 0.0
22/08:00am 22.4 21.7 15.5 65 4.2 NE 13 19 7 10 1018.8 1017.6 0.0
22/07:30am 21.8 22.1 15.9 69 3.6 NE 9 13 5 7 1018.5 1017.3 0.0
22/07:00am 21.4 21.7 15.9 71 3.3 NE 9 13 5 7 1018.2 1017.0 0.0
22/06:30am 21.4 20.8 15.7 70 3.5 NE 13 17 7 9 1017.6 1016.5 0.0
22/06:00am 21.2 20.9 15.5 70 3.4 NE 11 15 6 8 1017.5 1016.4 0.0
22/05:30am 20.9 21.0 15.4 71 3.3 NE 9 11 5 6 1017.4 1016.3 0.0
22/05:00am 21.0 21.3 15.1 69 3.5 ENE 7 9 4 5 1017.4 1016.3 0.0
22/04:30am 21.6 21.7 15.4 68 3.7 NE 9 9 5 5 1017.3 1016.2 0.0
22/04:00am 21.8 21.9 15.4 67 3.9 NNE 9 11 5 6 1017.4 1016.3 0.0
22/03:30am 22.3 22.4 15.4 65 4.2 NNE 9 13 5 7 1017.5 1016.4 0.0
22/03:00am 22.8 22.5 15.4 63 4.5 NE 11 15 6 8 1017.8 1016.7 0.0
22/02:30am 23.1 21.6 15.4 62 4.7 NNE 17 22 9 12 1017.7 1016.6 0.0
22/02:00am 23.0 22.6 16.1 65 4.2 NNE 13 19 7 10 1018.1 1016.9 0.0
22/01:30am 23.3 22.7 15.6 62 4.7 NE 13 17 7 9 1018.2 1017.0 0.0
22/01:00am 23.5 22.8 15.5 60 4.9 NE 13 19 7 10 1018.1 1016.9 0.0
22/12:30am 23.5 23.2 15.5 60 4.9 NE 11 15 6 8 1018.1 1016.9 0.0
22/12:00am 23.5 23.6 15.5 60 4.9 NE 9 13 5 7 1018.3 1017.1 0.0
 
Date/Time
EST
Temp
°C
App
Temp
°C
Dew
Point
°C
Rel
Hum
%
Delta-T
°C
Wind Press
QNH
hPa
Press
MSL
hPa
Rain since
9am
mm
Dir  Spd
km/h
Gust
km/h
Spd
kts
Gust
kts
21/11:30pm 23.0 23.3 15.1 61 4.8 NE 7 7 4 4 1018.4 1017.2 0.0
21/11:00pm 23.5 23.8 15.0 59 5.1 ENE 7 9 4 5 1018.4 1017.2 0.0
21/10:30pm 23.9 23.8 14.9 57 5.4 NE 9 13 5 7 1018.3 1017.1 0.0
21/10:00pm 24.3 23.7 14.7 55 5.8 NE 11 13 6 7 1018.5 1017.3 0.0
21/09:30pm 24.2 24.1 14.9 56 5.6 ENE 9 13 5 7 1018.6 1017.4 0.0
21/09:00pm 23.1 23.4 14.9 60 4.9 ESE 7 9 4 5 1018.5 1017.3 0.0
21/08:30pm 23.3 23.5 14.6 58 5.2 ESE 7 9 4 5 1018.2 1017.0 0.0
21/08:00pm 23.7 23.9 14.7 57 5.4 ESE 7 9 4 5 1017.9 1016.8 0.0
21/07:30pm 24.0 23.7 14.4 55 5.8 E 9 9 5 5 1017.8 1016.7 0.0
21/07:00pm 24.4 24.4 14.2 53 6.1 ESE 7 7 4 4 1017.6 1016.5 0.0

Other formats

Comma delimited format used in spreadsheet applications
http://www.bom.gov.au/fwo/IDQ60801/IDQ60801.94510.axf

JavaScript Object Notation format (JSON) in row-major order
http://www.bom.gov.au/fwo/IDQ60801/IDQ60801.94510.json

Data quality

Most of these data are generated automatically and are frequently updated. Quality checks on data are not normally performed. It is possible for incorrect values to appear. Refer to information at About Latest Weather Observations and please check the disclaimer before using these data.